Darstellungsparameter: Aktuell verwendete Einstellungen:
Skalierung der Graphiken ... ?
xyx+y,   Skalierungsfaktor:      Skalierung: Modus: x, Faktor: 1
Darstellungszeitraum ... ?
Vom - - bis: - -   Zeitraum: 16.04.2010 - 22.04.2010
Min/Max/Avg-Anzeige ... ?
Zeige MMA aktuell
Zeige MMA Monat
Zeige MMA alles
Zeige --A aktuell
Zeige --A Monat
Zeige --A alles
Keine MMA-Anzeige
MMA:
Average (ber die Originaldaten)
MMA-Basis: 16.04.2010 - 22.04.2010
Quicknavigation für Darstellung... ?
Tage:      1T, 2T, 3T, 5T -1T -2T -3T -5T +1T +2T +3T +5T
Wochen: 1W, 2W, 3W -1W -2W -3W +1W +2W +3W
Monate: 1M, 3M, 6M -1M -3M -6M +1M +3M +6M
Jahre:    1J, 3J, 5J, 10J -1J -3J -5J -10J +1J +3J +5J +10J
Nutze für die Darstellung ... ?
Originaldaten oder Mittelwerte auf ...
Stundenbasis Tagesbasis Wochenbasis
Monatsbasis Jahresbasis      Datenbasis: Original-Daten
Darstellen als:
Statistik (Auto) Statistik J:M      Darstellung:
Zur Graphik,    zurück zur Übersicht aller Sensoren.
 
Tabellarische Datenbersicht: ?
 
Sensor: Nr:Datum:Temp:Abs-Feuchte:Windchill:Wind:
Aussen-T/F 1 16-04-2010 00:01:02 11.4 C 3.9 g/m*3 11.4 C 0 km/h
2 16-04-2010 00:13:03 11.1 C 4.03 g/m*3 11.1 C 0 km/h
3 16-04-2010 00:25:01 10.9 C 3.98 g/m*3 10.9 C 0 km/h
4 16-04-2010 00:37:02 10.8 C 3.95 g/m*3 10.8 C 0 km/h
5 16-04-2010 00:49:02 10.7 C 4.03 g/m*3 10.7 C 0 km/h
6 16-04-2010 01:01:02 10.5 C 3.98 g/m*3 10.5 C 0 km/h
7 16-04-2010 01:13:02 10.3 C 4.02 g/m*3 10.3 C 0 km/h
8 16-04-2010 01:25:02 10.1 C 3.97 g/m*3 10.1 C 0 km/h
9 16-04-2010 01:37:02 10.1 C 4.07 g/m*3 10.1 C 0 km/h
10 16-04-2010 01:49:02 9.6 C 4.21 g/m*3 9.6 C 0 km/h
11 16-04-2010 02:01:03 9.3 C 4.22 g/m*3 9.3 C 0 km/h
12 16-04-2010 02:13:03 9 C 4.14 g/m*3 9 C 0 km/h
13 16-04-2010 02:25:02 8.7 C 4.32 g/m*3 8.7 C 0 km/h
14 16-04-2010 02:37:02 8.4 C 4.24 g/m*3 8.4 C 0 km/h
15 16-04-2010 02:50:03 8 C 4.22 g/m*3 8 C 0 km/h
16 16-04-2010 03:02:03 7.8 C 4.24 g/m*3 7.8 C 0 km/h
17 16-04-2010 03:14:04 7.7 C 4.3 g/m*3 7.7 C 0 km/h
18 16-04-2010 03:26:04 7.7 C 4.38 g/m*3 7.7 C 0 km/h
19 16-04-2010 03:38:02 7.4 C 4.37 g/m*3 7.4 C 0 km/h
20 16-04-2010 03:50:03 7.2 C 4.4 g/m*3 7.2 C 0 km/h
21 16-04-2010 04:02:02 7.3 C 4.42 g/m*3 7.3 C 0 km/h
22 16-04-2010 04:14:02 7.6 C 4.35 g/m*3 7.6 C 0 km/h
23 16-04-2010 04:26:02 7.6 C 4.27 g/m*3 7.6 C 0 km/h
24 16-04-2010 04:38:03 7.4 C 4.21 g/m*3 7.4 C 0 km/h
25 16-04-2010 04:50:02 7.2 C 4.24 g/m*3 7.2 C 0 km/h
Sensor: Nr:Datum:Temp:Abs-Feuchte:Windchill:Wind:
Aussen-T/F 26 16-04-2010 05:02:01 7.1 C 4.21 g/m*3 7.1 C 0 km/h
27 16-04-2010 05:14:01 7.1 C 4.21 g/m*3 7.1 C 0 km/h
28 16-04-2010 05:26:02 6.9 C 4.23 g/m*3 6.9 C 0 km/h
29 16-04-2010 05:38:02 6.8 C 4.28 g/m*3 6.8 C 0 km/h
30 16-04-2010 05:50:02 6.5 C 4.27 g/m*3 6.5 C 0 km/h
31 16-04-2010 06:02:01 6.3 C 4.37 g/m*3 6.3 C 0 km/h
32 16-04-2010 06:14:01 6.3 C 4.37 g/m*3 6.3 C 0 km/h
33 16-04-2010 06:26:01 6.1 C 4.38 g/m*3 6.1 C 0 km/h
34 16-04-2010 06:38:02 5.8 C 4.44 g/m*3 5.8 C 0 km/h
35 16-04-2010 06:50:02 5.9 C 4.69 g/m*3 5.9 C 0 km/h
36 16-04-2010 07:02:02 5.8 C 4.73 g/m*3 5.8 C 0 km/h
37 16-04-2010 07:14:02 5.8 C 4.8 g/m*3 5.8 C 0 km/h
38 16-04-2010 07:26:02 5.9 C 4.9 g/m*3 5.9 C 0 km/h
39 16-04-2010 07:38:02 6 C 4.94 g/m*3 6 C 0 km/h
40 16-04-2010 07:50:02 5.9 C 4.98 g/m*3 5.9 C 0 km/h
41 16-04-2010 08:02:02 5.8 C 4.94 g/m*3 5.8 C 0 km/h
42 16-04-2010 08:14:02 5.9 C 5.05 g/m*3 5.9 C 0 km/h
43 16-04-2010 08:26:02 5.9 C 5.05 g/m*3 5.9 C 0 km/h
44 16-04-2010 08:38:02 6.1 C 5.04 g/m*3 6.1 C 0 km/h
45 16-04-2010 08:50:01 6.3 C 5.03 g/m*3 6.3 C 0 km/h
46 16-04-2010 09:02:02 6.2 C 5 g/m*3 6.2 C 0 km/h
47 16-04-2010 09:14:02 6.2 C 5 g/m*3 6.2 C 0 km/h
48 16-04-2010 09:26:01 6.2 C 5 g/m*3 6.2 C 0 km/h
49 16-04-2010 09:38:02 6.2 C 5.07 g/m*3 6.2 C 0 km/h
50 16-04-2010 09:50:02 6.8 C 5.2 g/m*3 6.8 C 0 km/h
Sensor: Nr:Datum:Temp:Abs-Feuchte:Windchill:Wind:
Aussen-T/F 51 16-04-2010 10:02:02 6.7 C 5.09 g/m*3 6.7 C 0 km/h
52 16-04-2010 10:14:02 6.7 C 5.09 g/m*3 6.7 C 0 km/h
53 16-04-2010 10:26:02 6.7 C 4.94 g/m*3 6.7 C 0 km/h
54 16-04-2010 10:38:02 7.1 C 4.91 g/m*3 7.1 C 0 km/h
55 16-04-2010 10:50:02 7.2 C 4.87 g/m*3 7.2 C 0 km/h
56 16-04-2010 11:02:02 7 C 4.8 g/m*3 7 C 0 km/h
57 16-04-2010 11:14:02 7.5 C 4.88 g/m*3 7.5 C 0 km/h
58 16-04-2010 11:26:02 7.3 C 4.66 g/m*3 7.3 C 0 km/h
59 16-04-2010 11:38:02 7.5 C 4.8 g/m*3 7.5 C 0 km/h
60 16-04-2010 11:50:02 7.6 C 4.59 g/m*3 7.6 C 0 km/h
61 16-04-2010 12:02:03 8.5 C 4.7 g/m*3 8.5 C 0 km/h
62 16-04-2010 12:14:03 8.8 C 4.61 g/m*3 8.8 C 0 km/h
63 16-04-2010 12:26:02 9 C 4.41 g/m*3 9 C 0 km/h
64 16-04-2010 12:38:02 9.3 C 4.49 g/m*3 9.3 C 0 km/h
65 16-04-2010 12:50:02 9.1 C 4.35 g/m*3 9.1 C 0 km/h
66 16-04-2010 13:02:02 9.8 C 4.36 g/m*3 9.8 C 0 km/h
67 16-04-2010 13:14:02 10.2 C 4.28 g/m*3 10.2 C 0 km/h
68 16-04-2010 13:26:01 10.7 C 4.32 g/m*3 10.7 C 0 km/h
69 16-04-2010 13:38:02 11.2 C 4.16 g/m*3 11.2 C 0 km/h
70 16-04-2010 13:50:02 11.6 C 3.95 g/m*3 11.6 C 0 km/h
71 16-04-2010 14:02:02 12.3 C 3.91 g/m*3 12.3 C 0 km/h
72 16-04-2010 14:14:02 13.3 C 3.7 g/m*3 13.3 C 0 km/h
73 16-04-2010 14:26:02 13.5 C 3.63 g/m*3 13.5 C 0 km/h
74 16-04-2010 14:38:02 14 C 3.62 g/m*3 14 C 0 km/h
75 16-04-2010 14:50:02 14.5 C 3.73 g/m*3 14.5 C 0 km/h
Sensor: Nr:Datum:Temp:Abs-Feuchte:Windchill:Wind:
Aussen-T/F 76 16-04-2010 15:02:02 15 C 3.59 g/m*3 15 C 0 km/h
77 16-04-2010 15:14:02 13.9 C 3.48 g/m*3 13.9 C 0 km/h
78 16-04-2010 15:26:02 14.1 C 3.64 g/m*3 14.1 C 0 km/h
79 16-04-2010 15:38:01 15.2 C 3.5 g/m*3 15.2 C 0 km/h
80 16-04-2010 15:50:02 15.3 C 3.4 g/m*3 15.3 C 0 km/h
81 16-04-2010 16:02:01 15 C 3.33 g/m*3 15 C 0 km/h
82 16-04-2010 16:14:01 15.3 C 3.4 g/m*3 15.3 C 0 km/h
83 16-04-2010 16:26:02 14.6 C 3.5 g/m*3 14.6 C 0 km/h
84 16-04-2010 16:38:01 14 C 3.26 g/m*3 14 C 0 km/h
85 16-04-2010 16:50:03 14.1 C 3.4 g/m*3 14.1 C 0 km/h
86 16-04-2010 17:02:02 14.7 C 3.4 g/m*3 14.7 C 0 km/h
87 16-04-2010 17:14:02 15.3 C 3.4 g/m*3 15.3 C 0 km/h
88 16-04-2010 17:26:02 15.4 C 3.28 g/m*3 15.4 C 0 km/h
89 16-04-2010 17:38:02 15.3 C 3.26 g/m*3 15.3 C 0 km/h
90 16-04-2010 17:50:02 14.7 C 3.27 g/m*3 14.7 C 0 km/h
91 16-04-2010 18:02:02 15.5 C 3.17 g/m*3 15.5 C 0 km/h
92 16-04-2010 18:14:02 15.6 C 3.32 g/m*3 15.6 C 0 km/h
93 16-04-2010 18:26:02 14.6 C 3.25 g/m*3 14.6 C 0 km/h
94 16-04-2010 18:38:02 14.3 C 3.19 g/m*3 14.3 C 0 km/h
95 16-04-2010 18:50:02 14.5 C 3.36 g/m*3 14.5 C 0 km/h
96 16-04-2010 19:02:02 14.5 C 3.23 g/m*3 14.5 C 0 km/h
97 16-04-2010 19:14:02 14.6 C 3.38 g/m*3 14.6 C 0 km/h
98 16-04-2010 19:26:02 13.4 C 3.25 g/m*3 13.4 C 0 km/h
99 16-04-2010 19:38:01 12.9 C 3.38 g/m*3 12.9 C 0 km/h
100 16-04-2010 19:50:02 12.5 C 3.41 g/m*3 12.5 C 0 km/h
Sensor: Nr:Datum:Temp:Abs-Feuchte:Windchill:Wind:
Aussen-T/F 101 16-04-2010 20:02:01 12.3 C 3.47 g/m*3 12.3 C 0 km/h
102 16-04-2010 20:14:01 11.7 C 3.56 g/m*3 11.7 C 0 km/h
103 16-04-2010 20:26:02 11.2 C 3.65 g/m*3 11.2 C 0 km/h
104 16-04-2010 20:38:01 10.8 C 3.66 g/m*3 10.8 C 0 km/h
105 16-04-2010 20:50:02 10.5 C 3.69 g/m*3 10.5 C 0 km/h
106 16-04-2010 21:02:01 10.3 C 3.83 g/m*3 10.3 C 0 km/h
107 16-04-2010 21:14:01 9.9 C 3.83 g/m*3 9.9 C 0 km/h
108 16-04-2010 21:26:02 9.6 C 3.85 g/m*3 9.6 C 0 km/h
109 16-04-2010 21:38:01 9.3 C 3.86 g/m*3 9.3 C 0 km/h
110 16-04-2010 21:50:03 9.1 C 3.99 g/m*3 9.1 C 0 km/h
111 16-04-2010 22:02:02 8.9 C 3.94 g/m*3 8.9 C 0 km/h
112 16-04-2010 22:14:02 8.8 C 3.92 g/m*3 8.8 C 0 km/h
113 16-04-2010 22:26:03 8.5 C 4.1 g/m*3 8.5 C 0 km/h
114 16-04-2010 22:38:02 8.2 C 4.02 g/m*3 8.2 C 0 km/h
115 16-04-2010 22:50:03 8.1 C 4.08 g/m*3 8.1 C 0 km/h
116 16-04-2010 23:03:02 7.9 C 4.11 g/m*3 7.9 C 0 km/h
117 16-04-2010 23:15:02 7.7 C 4.14 g/m*3 7.7 C 0 km/h
118 16-04-2010 23:27:02 7.6 C 4.19 g/m*3 7.6 C 0 km/h
119 16-04-2010 23:39:02 7.4 C 4.14 g/m*3 7.4 C 0 km/h
120 16-04-2010 23:51:02 7.1 C 4.13 g/m*3 7.1 C 0 km/h
121 17-04-2010 00:03:02 7 C 4.18 g/m*3 7 C 0 km/h
122 17-04-2010 00:15:02 6.7 C 4.26 g/m*3 6.7 C 0 km/h
123 17-04-2010 00:27:02 6.5 C 4.27 g/m*3 6.5 C 0 km/h
124 17-04-2010 00:39:02 6.4 C 4.25 g/m*3 6.4 C 0 km/h
125 17-04-2010 00:51:02 6.2 C 4.19 g/m*3 6.2 C 0 km/h
Sensor: Nr:Datum:Temp:Abs-Feuchte:Windchill:Wind:
Aussen-T/F 126 17-04-2010 01:03:02 6.1 C 4.16 g/m*3 6.1 C 0 km/h
127 17-04-2010 01:15:02 5.9 C 4.33 g/m*3 5.9 C 0 km/h
128 17-04-2010 01:27:02 5.7 C 4.27 g/m*3 5.7 C 0 km/h
129 17-04-2010 01:39:02 5.5 C 4.28 g/m*3 5.5 C 0 km/h
130 17-04-2010 01:51:02 5.4 C 4.33 g/m*3 5.4 C 0 km/h
131 17-04-2010 02:03:02 5.2 C 4.34 g/m*3 5.2 C 0 km/h
132 17-04-2010 02:15:02 5.1 C 4.24 g/m*3 5.1 C 0 km/h
133 17-04-2010 02:27:02 5 C 4.28 g/m*3 5 C 0 km/h
134 17-04-2010 02:39:02 4.7 C 4.33 g/m*3 4.7 C 0 km/h
135 17-04-2010 02:51:03 4.5 C 4.27 g/m*3 4.5 C 0 km/h
136 17-04-2010 03:03:03 4.4 C 4.31 g/m*3 4.4 C 0 km/h
137 17-04-2010 03:15:03 4.2 C 4.25 g/m*3 4.2 C 0 km/h
138 17-04-2010 03:27:03 4.2 C 4.25 g/m*3 4.2 C 0 km/h
139 17-04-2010 03:39:03 3.7 C 4.18 g/m*3 3.7 C 0 km/h
140 17-04-2010 03:51:03 3.6 C 4.27 g/m*3 3.6 C 0 km/h
141 17-04-2010 04:03:03 3.6 C 4.27 g/m*3 3.6 C 0 km/h
142 17-04-2010 04:15:03 3.4 C 4.34 g/m*3 3.4 C 0 km/h
143 17-04-2010 04:27:03 3.2 C 4.34 g/m*3 3.2 C 0 km/h
144 17-04-2010 04:39:03 3 C 4.34 g/m*3 3 C 0 km/h
145 17-04-2010 04:51:03 2.8 C 4.28 g/m*3 2.8 C 0 km/h
146 17-04-2010 05:03:03 2.6 C 4.28 g/m*3 2.6 C 0 km/h
147 17-04-2010 05:15:03 2.5 C 4.25 g/m*3 2.5 C 0 km/h
148 17-04-2010 05:27:03 2.4 C 4.28 g/m*3 2.4 C 0 km/h
149 17-04-2010 05:39:03 2.2 C 4.28 g/m*3 2.2 C 0 km/h
150 17-04-2010 05:51:03 2.1 C 4.31 g/m*3 2.1 C 0 km/h
Sensor: Nr:Datum:Temp:Abs-Feuchte:Windchill:Wind:
Aussen-T/F 151 17-04-2010 06:03:03 1.9 C 4.3 g/m*3 1.9 C 0 km/h
152 17-04-2010 06:15:03 1.8 C 4.28 g/m*3 1.8 C 0 km/h
153 17-04-2010 06:27:03 1.9 C 4.3 g/m*3 1.9 C 0 km/h
154 17-04-2010 06:39:03 1.6 C 4.22 g/m*3 1.6 C 0 km/h
155 17-04-2010 06:51:04 1.5 C 4.19 g/m*3 1.5 C 0 km/h
156 17-04-2010 07:03:04 1.5 C 4.24 g/m*3 1.5 C 0 km/h
157 17-04-2010 07:15:04 1.5 C 4.24 g/m*3 1.5 C 0 km/h
158 17-04-2010 07:27:04 1.6 C 4.27 g/m*3 1.6 C 0 km/h
159 17-04-2010 07:39:04 1.6 C 4.33 g/m*3 1.6 C 0 km/h
160 17-04-2010 07:51:04 1.7 C 4.36 g/m*3 1.7 C 0 km/h
161 17-04-2010 08:03:04 1.9 C 4.42 g/m*3 1.9 C 0 km/h
162 17-04-2010 08:15:03 2.2 C 4.51 g/m*3 2.2 C 0 km/h
163 17-04-2010 08:27:03 2.5 C 4.6 g/m*3 2.5 C 0 km/h
164 17-04-2010 08:39:02 2.7 C 4.66 g/m*3 2.7 C 0 km/h
165 17-04-2010 08:51:04 3 C 4.7 g/m*3 3 C 0 km/h
166 17-04-2010 09:03:03 3.3 C 4.73 g/m*3 3.3 C 0 km/h
167 17-04-2010 09:15:04 3.7 C 4.8 g/m*3 3.7 C 0 km/h
168 17-04-2010 09:27:04 4.4 C 4.9 g/m*3 4.4 C 0 km/h
169 17-04-2010 09:39:03 5.1 C 4.92 g/m*3 5.1 C 0 km/h
170 17-04-2010 09:51:01 5.6 C 4.88 g/m*3 5.6 C 0 km/h
171 17-04-2010 10:03:01 6.7 C 4.94 g/m*3 6.7 C 0 km/h
172 17-04-2010 10:15:02 7 C 4.57 g/m*3 7 C 0 km/h
173 17-04-2010 10:27:02 7.5 C 4.4 g/m*3 7.5 C 0 km/h
174 17-04-2010 10:39:01 8.1 C 3.99 g/m*3 8.1 C 0 km/h
175 17-04-2010 10:51:01 8.6 C 3.87 g/m*3 8.6 C 0 km/h
Sensor: Nr:Datum:Temp:Abs-Feuchte:Windchill:Wind:
Aussen-T/F 176 17-04-2010 11:03:02 9.3 C 3.86 g/m*3 9.3 C 0 km/h
177 17-04-2010 11:15:01 10 C 3.66 g/m*3 10 C 0 km/h
178 17-04-2010 11:27:01 10.1 C 3.22 g/m*3 10.1 C 0 km/h
179 17-04-2010 11:39:01 10.5 C 3.39 g/m*3 10.5 C 0 km/h
180 17-04-2010 11:51:01 11 C 3.2 g/m*3 11 C 0 km/h
181 17-04-2010 12:03:02 11.2 C 3.24 g/m*3 11.2 C 0 km/h
182 17-04-2010 12:15:02 12 C 3.09 g/m*3 12 C 0 km/h
183 17-04-2010 12:27:02 12.5 C 2.97 g/m*3 12.5 C 0 km/h
184 17-04-2010 12:39:01 12.7 C 2.89 g/m*3 12.7 C 0 km/h
185 17-04-2010 12:51:01 12.6 C 2.77 g/m*3 12.6 C 0 km/h
186 17-04-2010 13:03:02 13.2 C 2.3 g/m*3 13.2 C 0 km/h
187 17-04-2010 13:15:02 13.9 C 2.4 g/m*3 13.9 C 0 km/h
188 17-04-2010 13:27:02 14.8 C 2.53 g/m*3 14.8 C 0 km/h
189 17-04-2010 13:39:01 15.5 C 2.64 g/m*3 15.5 C 0 km/h
190 17-04-2010 13:51:01 15.6 C 2.66 g/m*3 15.6 C 0 km/h
191 17-04-2010 14:03:02 16.4 C 2.79 g/m*3 16.4 C 0 km/h
192 17-04-2010 14:15:02 17 C 2.89 g/m*3 17 C 0 km/h
193 17-04-2010 14:27:02 17.6 C 3 g/m*3 17.6 C 0 km/h
194 17-04-2010 14:39:01 18.4 C 3.15 g/m*3 18.4 C 0 km/h
195 17-04-2010 14:51:01 19.4 C 3.34 g/m*3 19.4 C 0 km/h
196 17-04-2010 15:03:02 20 C 3.46 g/m*3 20 C 0 km/h
197 17-04-2010 15:15:02 20.8 C 3.62 g/m*3 20.8 C 0 km/h
198 17-04-2010 15:27:02 21 C 3.66 g/m*3 21 C 0 km/h
199 17-04-2010 15:39:01 21.9 C 3.86 g/m*3 21.9 C 0 km/h
200 17-04-2010 15:51:01 22.2 C 3.93 g/m*3 22.2 C 0 km/h
Sensor: Nr:Datum:Temp:Abs-Feuchte:Windchill:Wind:
Aussen-T/F 201 17-04-2010 16:03:02 20.9 C 3.64 g/m*3 20.9 C 0 km/h
202 17-04-2010 16:15:02 21 C 3.66 g/m*3 21 C 0 km/h
203 17-04-2010 16:27:02 22.2 C 3.93 g/m*3 22.2 C 0 km/h
204 17-04-2010 16:39:01 23.3 C 4.18 g/m*3 23.3 C 0 km/h
205 17-04-2010 16:51:01 23.5 C 4.23 g/m*3 23.5 C 0 km/h
206 17-04-2010 17:03:02 23.9 C 4.33 g/m*3 23.9 C 0 km/h
207 17-04-2010 17:15:02 24.1 C 4.38 g/m*3 24.1 C 0 km/h
208 17-04-2010 17:27:02 24.8 C 4.55 g/m*3 24.8 C 0 km/h
209 17-04-2010 17:39:02 23.4 C 4.21 g/m*3 23.4 C 0 km/h
210 17-04-2010 17:51:01 23.6 C 4.25 g/m*3 23.6 C 0 km/h
211 17-04-2010 18:03:02 24.1 C 4.38 g/m*3 24.1 C 0 km/h
212 17-04-2010 18:15:02 24.8 C 4.55 g/m*3 24.8 C 0 km/h
213 17-04-2010 18:27:02 24.1 C 4.38 g/m*3 24.1 C 0 km/h
214 17-04-2010 18:39:02 24.6 C 4.5 g/m*3 24.6 C 0 km/h
215 17-04-2010 18:51:01 24.5 C 4.48 g/m*3 24.5 C 0 km/h
216 17-04-2010 19:03:02 24.2 C 4.4 g/m*3 24.2 C 0 km/h
217 17-04-2010 19:15:02 24 C 4.35 g/m*3 24 C 0 km/h
218 17-04-2010 19:27:02 23 C 4.11 g/m*3 23 C 0 km/h
219 17-04-2010 19:39:02 22.3 C 3.95 g/m*3 22.3 C 0 km/h
220 17-04-2010 19:51:01 21.6 C 3.79 g/m*3 21.6 C 0 km/h
221 17-04-2010 20:03:02 20.1 C 3.48 g/m*3 20.1 C 0 km/h
222 17-04-2010 20:15:02 18.6 C 3.18 g/m*3 18.6 C 0 km/h
223 17-04-2010 20:27:02 17.1 C 2.91 g/m*3 17.1 C 0 km/h
224 17-04-2010 20:39:01 16.2 C 2.76 g/m*3 16.2 C 0 km/h
225 17-04-2010 20:51:01 15.2 C 2.73 g/m*3 15.2 C 0 km/h
Sensor: Nr:Datum:Temp:Abs-Feuchte:Windchill:Wind:
Aussen-T/F 226 17-04-2010 21:03:02 14.5 C 3.11 g/m*3 14.5 C 0 km/h
227 17-04-2010 21:15:02 13.7 C 3.08 g/m*3 13.7 C 0 km/h
228 17-04-2010 21:27:02 13.5 C 3.16 g/m*3 13.5 C 0 km/h
229 17-04-2010 21:39:01 13.2 C 3.1 g/m*3 13.2 C 0 km/h
230 17-04-2010 21:51:02 12.9 C 3.27 g/m*3 12.9 C 0 km/h
231 17-04-2010 22:03:01 12.4 C 3.17 g/m*3 12.4 C 0 km/h
232 17-04-2010 22:15:02 11.8 C 3.26 g/m*3 11.8 C 0 km/h
233 17-04-2010 22:27:02 11.9 C 3.28 g/m*3 11.9 C 0 km/h
234 17-04-2010 22:39:02 11.7 C 3.35 g/m*3 11.7 C 0 km/h
235 17-04-2010 22:51:02 11.2 C 3.45 g/m*3 11.2 C 0 km/h
236 17-04-2010 23:04:02 10.8 C 3.66 g/m*3 10.8 C 0 km/h
237 17-04-2010 23:16:02 10.4 C 3.66 g/m*3 10.4 C 0 km/h
238 17-04-2010 23:28:02 10.2 C 3.52 g/m*3 10.2 C 0 km/h
239 17-04-2010 23:40:02 9.6 C 3.57 g/m*3 9.6 C 0 km/h
240 17-04-2010 23:52:02 9.5 C 3.64 g/m*3 9.5 C 0 km/h
241 18-04-2010 00:04:02 9.2 C 3.57 g/m*3 9.2 C 0 km/h
242 18-04-2010 00:16:02 9 C 3.61 g/m*3 9 C 0 km/h
243 18-04-2010 00:28:02 8.9 C 3.68 g/m*3 8.9 C 0 km/h
244 18-04-2010 00:40:02 8.7 C 3.63 g/m*3 8.7 C 0 km/h
245 18-04-2010 00:52:03 8.3 C 3.54 g/m*3 8.3 C 0 km/h
246 18-04-2010 01:04:03 8.1 C 3.66 g/m*3 8.1 C 0 km/h
247 18-04-2010 01:16:03 7.8 C 3.67 g/m*3 7.8 C 0 km/h
248 18-04-2010 01:28:03 7.5 C 3.92 g/m*3 7.5 C 0 km/h
249 18-04-2010 01:40:03 7.2 C 3.92 g/m*3 7.2 C 0 km/h
250 18-04-2010 01:52:03 7.1 C 3.82 g/m*3 7.1 C 0 km/h
Sensor: Nr:Datum:Temp:Abs-Feuchte:Windchill:Wind:
Aussen-T/F 251 18-04-2010 02:04:03 7 C 3.8 g/m*3 7 C 0 km/h
252 18-04-2010 02:16:03 6.8 C 3.82 g/m*3 6.8 C 0 km/h
253 18-04-2010 02:28:03 6.6 C 3.85 g/m*3 6.6 C 0 km/h
254 18-04-2010 02:40:03 6.3 C 3.85 g/m*3 6.3 C 0 km/h
255 18-04-2010 02:52:03 6 C 3.85 g/m*3 6 C 0 km/h
256 18-04-2010 03:04:03 5.9 C 3.97 g/m*3 5.9 C 0 km/h
257 18-04-2010 03:16:03 5.6 C 3.89 g/m*3 5.6 C 0 km/h
258 18-04-2010 03:28:03 5.2 C 3.86 g/m*3 5.2 C 0 km/h
259 18-04-2010 03:40:03 5.3 C 4.02 g/m*3 5.3 C 0 km/h
260 18-04-2010 03:52:03 5.1 C 3.97 g/m*3 5.1 C 0 km/h
261 18-04-2010 04:04:03 5 C 3.94 g/m*3 5 C 0 km/h
262 18-04-2010 04:16:03 4.8 C 4.02 g/m*3 4.8 C 0 km/h
263 18-04-2010 04:28:03 4.5 C 4.08 g/m*3 4.5 C 0 km/h
264 18-04-2010 04:40:03 4.3 C 4.09 g/m*3 4.3 C 0 km/h
265 18-04-2010 04:52:03 4.2 C 4.06 g/m*3 4.2 C 0 km/h
266 18-04-2010 05:04:04 3.9 C 4.11 g/m*3 3.9 C 0 km/h
267 18-04-2010 05:16:04 3.8 C 4.08 g/m*3 3.8 C 0 km/h
268 18-04-2010 05:28:04 3.8 C 4.08 g/m*3 3.8 C 0 km/h
269 18-04-2010 05:40:04 3.6 C 4.09 g/m*3 3.6 C 0 km/h
270 18-04-2010 05:52:04 3.4 C 4.03 g/m*3 3.4 C 0 km/h
271 18-04-2010 06:04:04 3.3 C 4.06 g/m*3 3.3 C 0 km/h
272 18-04-2010 06:16:04 3.1 C 4.07 g/m*3 3.1 C 0 km/h
273 18-04-2010 06:28:04 3 C 4.04 g/m*3 3 C 0 km/h
274 18-04-2010 06:40:04 2.9 C 4.07 g/m*3 2.9 C 0 km/h
275 18-04-2010 06:52:04 2.8 C 4.11 g/m*3 2.8 C 0 km/h
Sensor: Nr:Datum:Temp:Abs-Feuchte:Windchill:Wind:
Aussen-T/F 276 18-04-2010 07:04:04 2.7 C 4.14 g/m*3 2.7 C 0 km/h
277 18-04-2010 07:16:04 2.6 C 4.17 g/m*3 2.6 C 0 km/h
278 18-04-2010 07:28:04 2.6 C 4.22 g/m*3 2.6 C 0 km/h
279 18-04-2010 07:40:04 2.6 C 4.17 g/m*3 2.6 C 0 km/h
280 18-04-2010 07:52:04 2.8 C 4.22 g/m*3 2.8 C 0 km/h
281 18-04-2010 08:04:02 3.1 C 4.25 g/m*3 3.1 C 0 km/h
282 18-04-2010 08:16:02 3.4 C 4.34 g/m*3 3.4 C 0 km/h
283 18-04-2010 08:28:02 3.7 C 4.36 g/m*3 3.7 C 0 km/h
284 18-04-2010 08:40:02 4 C 4.26 g/m*3 4 C 0 km/h
285 18-04-2010 08:52:01 4.3 C 4.35 g/m*3 4.3 C 0 km/h
286 18-04-2010 09:04:02 4.6 C 4.37 g/m*3 4.6 C 0 km/h
287 18-04-2010 09:16:01 5.1 C 4.38 g/m*3 5.1 C 0 km/h
288 18-04-2010 09:28:01 5.7 C 4.48 g/m*3 5.7 C 0 km/h
289 18-04-2010 09:40:02 6.3 C 4.52 g/m*3 6.3 C 0 km/h
290 18-04-2010 09:52:02 7.2 C 4.47 g/m*3 7.2 C 0 km/h
291 18-04-2010 10:04:02 7.9 C 4.44 g/m*3 7.9 C 0 km/h
292 18-04-2010 10:16:02 8.5 C 4.27 g/m*3 8.5 C 0 km/h
293 18-04-2010 10:28:02 9.2 C 4.29 g/m*3 9.2 C 0 km/h
294 18-04-2010 10:40:02 9.7 C 4.15 g/m*3 9.7 C 0 km/h
295 18-04-2010 10:52:02 10.7 C 4.32 g/m*3 10.7 C 0 km/h
296 18-04-2010 11:04:02 11.5 C 4.23 g/m*3 11.5 C 0 km/h
297 18-04-2010 11:16:02 12.4 C 4.37 g/m*3 12.4 C 0 km/h
298 18-04-2010 11:28:02 13.4 C 4.42 g/m*3 13.4 C 0 km/h
299 18-04-2010 11:40:02 14 C 4.34 g/m*3 14 C 0 km/h
300 18-04-2010 11:52:02 15 C 4.36 g/m*3 15 C 0 km/h
Sensor: Nr:Datum:Temp:Abs-Feuchte:Windchill:Wind:
Aussen-T/F 301 18-04-2010 12:04:02 15.5 C 4.23 g/m*3 15.5 C 0 km/h
302 18-04-2010 12:16:01 16.1 C 4.11 g/m*3 16.1 C 0 km/h
303 18-04-2010 12:28:01 16.6 C 3.67 g/m*3 16.6 C 0 km/h
304 18-04-2010 12:40:02 17 C 2.89 g/m*3 17 C 0 km/h
305 18-04-2010 12:52:02 17.2 C 2.93 g/m*3 17.2 C 0 km/h
306 18-04-2010 13:04:02 18 C 3.07 g/m*3 18 C 0 km/h
307 18-04-2010 13:16:02 18.5 C 3.16 g/m*3 18.5 C 0 km/h
308 18-04-2010 13:28:02 19.5 C 3.36 g/m*3 19.5 C 0 km/h
309 18-04-2010 13:40:02 19.7 C 3.4 g/m*3 19.7 C 0 km/h
310 18-04-2010 13:52:01 20.6 C 3.58 g/m*3 20.6 C 0 km/h
311 18-04-2010 14:04:02 20.1 C 3.48 g/m*3 20.1 C 0 km/h
312 18-04-2010 14:16:01 21 C 3.66 g/m*3 21 C 0 km/h
313 18-04-2010 14:28:01 22.2 C 3.93 g/m*3 22.2 C 0 km/h
314 18-04-2010 14:40:02 22 C 3.88 g/m*3 22 C 0 km/h
315 18-04-2010 14:52:02 22.7 C 4.04 g/m*3 22.7 C 0 km/h
316 18-04-2010 15:04:01 23.1 C 4.13 g/m*3 23.1 C 0 km/h
317 18-04-2010 15:16:02 23.5 C 4.23 g/m*3 23.5 C 0 km/h
318 18-04-2010 15:28:02 23.6 C 4.25 g/m*3 23.6 C 0 km/h
319 18-04-2010 15:40:02 23.3 C 4.18 g/m*3 23.3 C 0 km/h
320 18-04-2010 15:52:01 22.9 C 4.09 g/m*3 22.9 C 0 km/h
321 18-04-2010 16:04:02 24 C 4.35 g/m*3 24 C 0 km/h
322 18-04-2010 16:16:01 23.7 C 4.28 g/m*3 23.7 C 0 km/h
323 18-04-2010 16:28:01 24.6 C 4.5 g/m*3 24.6 C 0 km/h
324 18-04-2010 16:40:02 24.7 C 4.53 g/m*3 24.7 C 0 km/h
325 18-04-2010 16:52:02 25.1 C 4.63 g/m*3 25.1 C 0 km/h
Sensor: Nr:Datum:Temp:Abs-Feuchte:Windchill:Wind:
Aussen-T/F 326 18-04-2010 17:04:02 26 C 4.87 g/m*3 26 C 0 km/h
327 18-04-2010 17:16:02 26.9 C 5.12 g/m*3 26.9 C 0 km/h
328 18-04-2010 17:28:02 25.9 C 4.84 g/m*3 25.9 C 0 km/h
329 18-04-2010 17:40:02 25.1 C 4.63 g/m*3 25.1 C 0 km/h
330 18-04-2010 17:52:02 24.9 C 4.58 g/m*3 24.9 C 0 km/h
331 18-04-2010 18:04:01 25.9 C 4.84 g/m*3 25.9 C 0 km/h
332 18-04-2010 18:16:01 25.9 C 4.84 g/m*3 25.9 C 0 km/h
333 18-04-2010 18:28:01 25 C 4.6 g/m*3 25 C 0 km/h
334 18-04-2010 18:40:02 25.5 C 4.73 g/m*3 25.5 C 0 km/h
335 18-04-2010 18:52:02 24.8 C 4.55 g/m*3 24.8 C 0 km/h
336 18-04-2010 19:04:02 24.5 C 4.48 g/m*3 24.5 C 0 km/h
337 18-04-2010 19:16:02 24.1 C 4.38 g/m*3 24.1 C 0 km/h
338 18-04-2010 19:28:02 24.6 C 4.5 g/m*3 24.6 C 0 km/h
339 18-04-2010 19:40:02 24.1 C 4.38 g/m*3 24.1 C 0 km/h
340 18-04-2010 19:52:02 22.7 C 4.04 g/m*3 22.7 C 0 km/h
341 18-04-2010 20:04:02 21.1 C 3.69 g/m*3 21.1 C 0 km/h
342 18-04-2010 20:16:01 20 C 3.46 g/m*3 20 C 0 km/h
343 18-04-2010 20:28:01 19.1 C 3.28 g/m*3 19.1 C 0 km/h
344 18-04-2010 20:40:02 18.3 C 3.13 g/m*3 18.3 C 0 km/h
345 18-04-2010 20:52:02 18.1 C 3.09 g/m*3 18.1 C 0 km/h
346 18-04-2010 21:04:02 17.8 C 3.04 g/m*3 17.8 C 0 km/h
347 18-04-2010 21:16:02 17.5 C 2.98 g/m*3 17.5 C 0 km/h
348 18-04-2010 21:28:02 17.2 C 2.93 g/m*3 17.2 C 0 km/h
349 18-04-2010 21:40:02 16.7 C 2.84 g/m*3 16.7 C 0 km/h
350 18-04-2010 21:52:01 16.4 C 2.79 g/m*3 16.4 C 0 km/h
Sensor: Nr:Datum:Temp:Abs-Feuchte:Windchill:Wind:
Aussen-T/F 351 18-04-2010 22:04:01 15.7 C 2.68 g/m*3 15.7 C 0 km/h
352 18-04-2010 22:17:03 15.5 C 2.64 g/m*3 15.5 C 0 km/h
353 18-04-2010 22:29:03 15 C 2.82 g/m*3 15 C 0 km/h
354 18-04-2010 22:41:03 14.5 C 3.23 g/m*3 14.5 C 0 km/h
355 18-04-2010 22:53:03 14.1 C 3.16 g/m*3 14.1 C 0 km/h
356 18-04-2010 23:05:03 13.9 C 3.12 g/m*3 13.9 C 0 km/h
357 18-04-2010 23:17:03 13.4 C 3.14 g/m*3 13.4 C 0 km/h
358 18-04-2010 23:29:03 12.7 C 3.45 g/m*3 12.7 C 0 km/h
359 18-04-2010 23:41:03 12.3 C 3.58 g/m*3 12.3 C 0 km/h
360 18-04-2010 23:53:03 12.1 C 3.65 g/m*3 12.1 C 0 km/h
361 19-04-2010 00:05:03 11.7 C 3.87 g/m*3 11.7 C 0 km/h
362 19-04-2010 00:17:03 11.3 C 4.08 g/m*3 11.3 C 0 km/h
363 19-04-2010 00:29:03 10.9 C 4.18 g/m*3 10.9 C 0 km/h
364 19-04-2010 00:41:03 10.7 C 4.13 g/m*3 10.7 C 0 km/h
365 19-04-2010 00:53:04 10.7 C 4.13 g/m*3 10.7 C 0 km/h
366 19-04-2010 01:05:04 10.6 C 4 g/m*3 10.6 C 0 km/h
367 19-04-2010 01:17:04 10.3 C 3.83 g/m*3 10.3 C 0 km/h
368 19-04-2010 01:29:04 10.2 C 3.81 g/m*3 10.2 C 0 km/h
369 19-04-2010 01:41:04 10.1 C 3.88 g/m*3 10.1 C 0 km/h
370 19-04-2010 01:53:04 9.8 C 3.9 g/m*3 9.8 C 0 km/h
371 19-04-2010 02:05:04 9.4 C 4.07 g/m*3 9.4 C 0 km/h
372 19-04-2010 02:17:04 9 C 4.06 g/m*3 9 C 0 km/h
373 19-04-2010 02:29:04 8.9 C 4.03 g/m*3 8.9 C 0 km/h
374 19-04-2010 02:41:04 8.6 C 4.12 g/m*3 8.6 C 0 km/h
375 19-04-2010 02:53:04 8.5 C 4.1 g/m*3 8.5 C 0 km/h
Sensor: Nr:Datum:Temp:Abs-Feuchte:Windchill:Wind:
Aussen-T/F 376 19-04-2010 03:05:04 8.4 C 4.07 g/m*3 8.4 C 0 km/h
377 19-04-2010 03:17:04 8 C 4.22 g/m*3 8 C 0 km/h
378 19-04-2010 03:29:04 8 C 4.22 g/m*3 8 C 0 km/h
379 19-04-2010 03:41:04 7.8 C 4.33 g/m*3 7.8 C 0 km/h
380 19-04-2010 03:53:04 7.5 C 4.32 g/m*3 7.5 C 0 km/h
381 19-04-2010 04:05:04 7.4 C 4.29 g/m*3 7.4 C 0 km/h
382 19-04-2010 04:17:04 7.3 C 4.35 g/m*3 7.3 C 0 km/h
383 19-04-2010 04:29:04 7 C 4.34 g/m*3 7 C 0 km/h
384 19-04-2010 04:41:04 6.8 C 4.36 g/m*3 6.8 C 0 km/h
385 19-04-2010 04:53:05 6.6 C 4.38 g/m*3 6.6 C 0 km/h
386 19-04-2010 05:05:05 6.6 C 4.45 g/m*3 6.6 C 0 km/h
387 19-04-2010 05:17:05 6.8 C 4.59 g/m*3 6.8 C 0 km/h
388 19-04-2010 05:29:05 6.2 C 4.49 g/m*3 6.2 C 0 km/h
389 19-04-2010 05:41:05 5.9 C 4.54 g/m*3 5.9 C 0 km/h
390 19-04-2010 05:53:05 5.8 C 4.58 g/m*3 5.8 C 0 km/h
391 19-04-2010 06:05:05 5.7 C 4.55 g/m*3 5.7 C 0 km/h
392 19-04-2010 06:17:05 5.4 C 4.54 g/m*3 5.4 C 0 km/h
393 19-04-2010 06:29:05 5.2 C 4.54 g/m*3 5.2 C 0 km/h
394 19-04-2010 06:41:05 5.1 C 4.65 g/m*3 5.1 C 0 km/h
395 19-04-2010 06:53:05 5 C 4.62 g/m*3 5 C 0 km/h
396 19-04-2010 07:05:02 5 C 4.62 g/m*3 5 C 0 km/h
397 19-04-2010 07:17:02 4.8 C 4.63 g/m*3 4.8 C 0 km/h
398 19-04-2010 07:29:02 4.9 C 4.73 g/m*3 4.9 C 0 km/h
399 19-04-2010 07:41:02 5.2 C 4.75 g/m*3 5.2 C 0 km/h
400 19-04-2010 07:53:02 5.4 C 4.81 g/m*3 5.4 C 0 km/h
Sensor: Nr:Datum:Temp:Abs-Feuchte:Windchill:Wind:
Aussen-T/F 401 19-04-2010 08:05:02 5.7 C 4.77 g/m*3 5.7 C 0 km/h
402 19-04-2010 08:17:02 6 C 4.79 g/m*3 6 C 0 km/h
403 19-04-2010 08:29:02 6.2 C 4.78 g/m*3 6.2 C 0 km/h
404 19-04-2010 08:41:02 6.6 C 4.91 g/m*3 6.6 C 0 km/h
405 19-04-2010 08:53:01 7.5 C 5.36 g/m*3 7.5 C 0 km/h
406 19-04-2010 09:05:02 8.4 C 5.77 g/m*3 8.4 C 0 km/h
407 19-04-2010 09:17:01 8.8 C 5.83 g/m*3 8.8 C 0 km/h
408 19-04-2010 09:29:01 9.1 C 5.77 g/m*3 9.1 C 0 km/h
409 19-04-2010 09:41:02 9.4 C 5.79 g/m*3 9.4 C 0 km/h
410 19-04-2010 09:53:02 9.7 C 5.81 g/m*3 9.7 C 0 km/h
411 19-04-2010 10:05:02 10.1 C 5.77 g/m*3 10.1 C 0 km/h
412 19-04-2010 10:17:01 10.4 C 5.78 g/m*3 10.4 C 0 km/h
413 19-04-2010 10:29:01 10.7 C 5.7 g/m*3 10.7 C 0 km/h
414 19-04-2010 10:41:02 11.2 C 5.68 g/m*3 11.2 C 0 km/h
415 19-04-2010 10:53:02 11.2 C 5.68 g/m*3 11.2 C 0 km/h
416 19-04-2010 11:05:02 11.6 C 5.82 g/m*3 11.6 C 0 km/h
417 19-04-2010 11:17:02 12.2 C 5.72 g/m*3 12.2 C 0 km/h
418 19-04-2010 11:29:02 12.5 C 5.72 g/m*3 12.5 C 0 km/h
419 19-04-2010 11:41:02 12.9 C 5.75 g/m*3 12.9 C 0 km/h
420 19-04-2010 11:53:02 12.7 C 5.57 g/m*3 12.7 C 0 km/h
421 19-04-2010 12:05:02 13 C 5.67 g/m*3 13 C 0 km/h
422 19-04-2010 12:17:02 13.1 C 5.48 g/m*3 13.1 C 0 km/h
423 19-04-2010 12:29:02 13.6 C 5.65 g/m*3 13.6 C 0 km/h
424 19-04-2010 12:41:02 13.6 C 5.65 g/m*3 13.6 C 0 km/h
425 19-04-2010 12:53:01 13.8 C 5.6 g/m*3 13.8 C 0 km/h
Sensor: Nr:Datum:Temp:Abs-Feuchte:Windchill:Wind:
Aussen-T/F 426 19-04-2010 13:05:02 13.6 C 5.53 g/m*3 13.6 C 0 km/h
427 19-04-2010 13:17:01 13.9 C 5.63 g/m*3 13.9 C 0 km/h
428 19-04-2010 13:29:01 14 C 5.55 g/m*3 14 C 0 km/h
429 19-04-2010 13:41:01 14.3 C 5.41 g/m*3 14.3 C 0 km/h
430 19-04-2010 13:53:01 14.2 C 5.37 g/m*3 14.2 C 0 km/h
431 19-04-2010 14:05:02 14.8 C 5.57 g/m*3 14.8 C 0 km/h
432 19-04-2010 14:17:01 14.8 C 5.19 g/m*3 14.8 C 0 km/h
433 19-04-2010 14:29:01 15.6 C 5.45 g/m*3 15.6 C 0 km/h
434 19-04-2010 14:41:02 16.6 C 5.51 g/m*3 16.6 C 0 km/h
435 19-04-2010 14:53:02 16.2 C 5.24 g/m*3 16.2 C 0 km/h
436 19-04-2010 15:05:02 15.3 C 5.22 g/m*3 15.3 C 0 km/h
437 19-04-2010 15:17:01 15.2 C 5.19 g/m*3 15.2 C 0 km/h
438 19-04-2010 15:29:01 15.9 C 5.28 g/m*3 15.9 C 0 km/h
439 19-04-2010 15:41:02 16.5 C 5.2 g/m*3 16.5 C 0 km/h
440 19-04-2010 15:53:02 16 C 5.04 g/m*3 16 C 0 km/h
441 19-04-2010 16:05:02 15.8 C 5.25 g/m*3 15.8 C 0 km/h
442 19-04-2010 16:17:01 15.6 C 5.19 g/m*3 15.6 C 0 km/h
443 19-04-2010 16:29:01 16.5 C 5.34 g/m*3 16.5 C 0 km/h
444 19-04-2010 16:41:02 16.2 C 5.1 g/m*3 16.2 C 0 km/h
445 19-04-2010 16:53:02 16.9 C 5.18 g/m*3 16.9 C 0 km/h
446 19-04-2010 17:05:02 16.4 C 5.02 g/m*3 16.4 C 0 km/h
447 19-04-2010 17:17:01 16.3 C 5.13 g/m*3 16.3 C 0 km/h
448 19-04-2010 17:29:01 16.9 C 5.32 g/m*3 16.9 C 0 km/h
449 19-04-2010 17:41:02 16.9 C 5.18 g/m*3 16.9 C 0 km/h
450 19-04-2010 17:53:02 16.7 C 5.12 g/m*3 16.7 C 0 km/h
Sensor: Nr:Datum:Temp:Abs-Feuchte:Windchill:Wind:
Aussen-T/F 451 19-04-2010 18:05:02 16.4 C 5.02 g/m*3 16.4 C 0 km/h
452 19-04-2010 18:17:02 16.5 C 4.77 g/m*3 16.5 C 0 km/h
453 19-04-2010 18:29:02 16.1 C 4.8 g/m*3 16.1 C 0 km/h
454 19-04-2010 18:41:02 16.1 C 4.93 g/m*3 16.1 C 0 km/h
455 19-04-2010 18:53:02 16.2 C 4.83 g/m*3 16.2 C 0 km/h
456 19-04-2010 19:05:02 16.4 C 5.02 g/m*3 16.4 C 0 km/h
457 19-04-2010 19:17:02 15.3 C 4.96 g/m*3 15.3 C 0 km/h
458 19-04-2010 19:29:02 15 C 5.13 g/m*3 15 C 0 km/h
459 19-04-2010 19:41:02 14.8 C 5.19 g/m*3 14.8 C 0 km/h
460 19-04-2010 19:53:01 14.3 C 5.16 g/m*3 14.3 C 0 km/h
461 19-04-2010 20:05:02 13.9 C 5.39 g/m*3 13.9 C 0 km/h
462 19-04-2010 20:17:02 13.3 C 5.31 g/m*3 13.3 C 0 km/h
463 19-04-2010 20:29:02 13 C 5.33 g/m*3 13 C 0 km/h
464 19-04-2010 20:41:02 12.6 C 5.42 g/m*3 12.6 C 0 km/h
465 19-04-2010 20:53:02 12.3 C 5.43 g/m*3 12.3 C 0 km/h
466 19-04-2010 21:05:02 12.1 C 5.36 g/m*3 12.1 C 0 km/h
467 19-04-2010 21:17:02 11.8 C 5.47 g/m*3 11.8 C 0 km/h
468 19-04-2010 21:29:02 11.7 C 5.54 g/m*3 11.7 C 0 km/h
469 19-04-2010 21:41:01 11.4 C 5.44 g/m*3 11.4 C 0 km/h
470 19-04-2010 21:53:02 11.4 C 5.54 g/m*3 11.4 C 0 km/h
471 19-04-2010 22:06:03 11 C 5.51 g/m*3 11 C 0 km/h
472 19-04-2010 22:18:03 10.9 C 5.67 g/m*3 10.9 C 0 km/h
473 19-04-2010 22:30:03 10.5 C 5.63 g/m*3 10.5 C 0 km/h
474 19-04-2010 22:42:03 10.4 C 5.59 g/m*3 10.4 C 0 km/h
475 19-04-2010 22:54:03 10.3 C 5.65 g/m*3 10.3 C 0 km/h
Sensor: Nr:Datum:Temp:Abs-Feuchte:Windchill:Wind:
Aussen-T/F 476 19-04-2010 23:06:03 10.3 C 5.65 g/m*3 10.3 C 0 km/h
477 19-04-2010 23:18:03 10.1 C 5.58 g/m*3 10.1 C 0 km/h
478 19-04-2010 23:30:03 9.7 C 5.62 g/m*3 9.7 C 0 km/h
479 19-04-2010 23:42:03 9.4 C 5.61 g/m*3 9.4 C 0 km/h
480 19-04-2010 23:54:03 9.2 C 5.54 g/m*3 9.2 C 0 km/h
481 20-04-2010 00:06:03 9 C 5.47 g/m*3 9 C 0 km/h
482 20-04-2010 00:18:03 8.9 C 5.52 g/m*3 8.9 C 0 km/h
483 20-04-2010 00:30:03 8.6 C 5.41 g/m*3 8.6 C 0 km/h
484 20-04-2010 00:42:03 8.4 C 5.43 g/m*3 8.4 C 0 km/h
485 20-04-2010 00:54:03 8.3 C 5.48 g/m*3 8.3 C 0 km/h
486 20-04-2010 01:06:03 8.2 C 5.36 g/m*3 8.2 C 0 km/h
487 20-04-2010 01:18:04 8 C 5.37 g/m*3 8 C 0 km/h
488 20-04-2010 01:30:04 7.8 C 5.39 g/m*3 7.8 C 0 km/h
489 20-04-2010 01:42:04 7.7 C 5.35 g/m*3 7.7 C 0 km/h
490 20-04-2010 01:54:04 7.4 C 5.41 g/m*3 7.4 C 0 km/h
491 20-04-2010 02:06:04 7.1 C 5.46 g/m*3 7.1 C 0 km/h
492 20-04-2010 02:18:04 6.9 C 5.54 g/m*3 6.9 C 0 km/h
493 20-04-2010 02:30:04 6.7 C 5.47 g/m*3 6.7 C 0 km/h
494 20-04-2010 02:42:04 6.5 C 5.47 g/m*3 6.5 C 0 km/h
495 20-04-2010 02:54:04 6.3 C 5.48 g/m*3 6.3 C 0 km/h
496 20-04-2010 03:06:04 6.1 C 5.41 g/m*3 6.1 C 0 km/h
497 20-04-2010 03:18:04 6 C 5.44 g/m*3 6 C 0 km/h
498 20-04-2010 03:30:04 5.8 C 5.44 g/m*3 5.8 C 0 km/h
499 20-04-2010 03:42:04 5.7 C 5.55 g/m*3 5.7 C 0 km/h
500 20-04-2010 03:54:04 5.6 C 5.59 g/m*3 5.6 C 0 km/h
Sensor: Nr:Datum:Temp:Abs-Feuchte:Windchill:Wind:
Aussen-T/F 501 20-04-2010 04:06:04 5.4 C 5.51 g/m*3 5.4 C 0 km/h
502 20-04-2010 04:18:04 5.2 C 5.44 g/m*3 5.2 C 0 km/h
503 20-04-2010 04:30:04 5 C 5.44 g/m*3 5 C 0 km/h
504 20-04-2010 04:42:04 4.8 C 5.43 g/m*3 4.8 C 0 km/h
505 20-04-2010 04:54:04 4.7 C 5.4 g/m*3 4.7 C 0 km/h
506 20-04-2010 05:06:04 4.6 C 5.43 g/m*3 4.6 C 0 km/h
507 20-04-2010 05:18:05 4.5 C 5.32 g/m*3 4.5 C 0 km/h
508 20-04-2010 05:30:05 4.4 C 5.35 g/m*3 4.4 C 0 km/h
509 20-04-2010 05:42:05 4.2 C 5.28 g/m*3 4.2 C 0 km/h
510 20-04-2010 05:54:05 4.1 C 5.25 g/m*3 4.1 C 0 km/h
511 20-04-2010 06:06:05 3.9 C 5.31 g/m*3 3.9 C 0 km/h
512 20-04-2010 06:18:05 3.8 C 5.27 g/m*3 3.8 C 0 km/h
513 20-04-2010 06:30:05 3.6 C 5.2 g/m*3 3.6 C 0 km/h
514 20-04-2010 06:42:05 3.6 C 5.26 g/m*3 3.6 C 0 km/h
515 20-04-2010 06:54:02 3.5 C 5.23 g/m*3 3.5 C 0 km/h
516 20-04-2010 07:06:02 3.4 C 5.19 g/m*3 3.4 C 0 km/h
517 20-04-2010 07:18:02 3.4 C 5.19 g/m*3 3.4 C 0 km/h
518 20-04-2010 07:30:02 3.5 C 5.29 g/m*3 3.5 C 0 km/h
519 20-04-2010 07:42:01 3.5 C 5.29 g/m*3 3.5 C 0 km/h
520 20-04-2010 07:54:02 3.5 C 5.29 g/m*3 3.5 C 0 km/h
521 20-04-2010 08:06:01 3.5 C 5.35 g/m*3 3.5 C 0 km/h
522 20-04-2010 08:18:02 3.5 C 5.35 g/m*3 3.5 C 0 km/h
523 20-04-2010 08:30:02 3.7 C 5.48 g/m*3 3.7 C 0 km/h
524 20-04-2010 08:42:01 4 C 5.59 g/m*3 4 C 0 km/h
525 20-04-2010 08:54:01 4.2 C 5.61 g/m*3 4.2 C 0 km/h
Sensor: Nr:Datum:Temp:Abs-Feuchte:Windchill:Wind:
Aussen-T/F 526 20-04-2010 09:06:01 4.4 C 5.68 g/m*3 4.4 C 0 km/h
527 20-04-2010 09:18:02 4.8 C 5.83 g/m*3 4.8 C 0 km/h
528 20-04-2010 09:30:02 5.3 C 5.89 g/m*3 5.3 C 0 km/h
529 20-04-2010 09:42:01 6 C 5.95 g/m*3 6 C 0 km/h
530 20-04-2010 09:54:03 6.9 C 6.31 g/m*3 6.9 C 0 km/h
531 20-04-2010 10:06:02 7.6 C 6.2 g/m*3 7.6 C 0 km/h
532 20-04-2010 10:18:02 8.2 C 6.11 g/m*3 8.2 C 0 km/h
533 20-04-2010 10:30:02 9.1 C 5.94 g/m*3 9.1 C 0 km/h
534 20-04-2010 10:42:02 10 C 5.92 g/m*3 10 C 0 km/h
535 20-04-2010 10:54:02 10.8 C 5.83 g/m*3 10.8 C 0 km/h
536 20-04-2010 11:06:02 11.7 C 5.65 g/m*3 11.7 C 0 km/h
537 20-04-2010 11:18:02 12.3 C 5.54 g/m*3 12.3 C 0 km/h
538 20-04-2010 11:30:02 12.8 C 5.49 g/m*3 12.8 C 0 km/h
539 20-04-2010 11:42:02 13.4 C 5.35 g/m*3 13.4 C 0 km/h
540 20-04-2010 11:54:01 14.2 C 5.25 g/m*3 14.2 C 0 km/h
541 20-04-2010 12:06:02 14.8 C 5.07 g/m*3 14.8 C 0 km/h
542 20-04-2010 12:18:02 15.5 C 4.76 g/m*3 15.5 C 0 km/h
543 20-04-2010 12:30:02 16.2 C 4.14 g/m*3 16.2 C 0 km/h
544 20-04-2010 12:42:02 16.9 C 4.03 g/m*3 16.9 C 0 km/h
545 20-04-2010 12:54:02 17.4 C 4 g/m*3 17.4 C 0 km/h
546 20-04-2010 13:06:02 18 C 3.07 g/m*3 18 C 0 km/h
547 20-04-2010 13:18:02 18.6 C 3.18 g/m*3 18.6 C 0 km/h
548 20-04-2010 13:30:02 18.1 C 3.09 g/m*3 18.1 C 0 km/h
549 20-04-2010 13:42:01 19.1 C 3.28 g/m*3 19.1 C 0 km/h
550 20-04-2010 13:54:02 18.8 C 3.22 g/m*3 18.8 C 0 km/h
Sensor: Nr:Datum:Temp:Abs-Feuchte:Windchill:Wind:
Aussen-T/F 551 20-04-2010 14:06:01 19.3 C 3.32 g/m*3 19.3 C 0 km/h
552 20-04-2010 14:18:02 19.1 C 3.28 g/m*3 19.1 C 0 km/h
553 20-04-2010 14:30:02 18.5 C 3.16 g/m*3 18.5 C 0 km/h
554 20-04-2010 14:42:01 18.9 C 3.24 g/m*3 18.9 C 0 km/h
555 20-04-2010 14:54:02 20.2 C 3.5 g/m*3 20.2 C 0 km/h
556 20-04-2010 15:06:01 20.4 C 3.54 g/m*3 20.4 C 0 km/h
557 20-04-2010 15:18:02 20.7 C 3.6 g/m*3 20.7 C 0 km/h
558 20-04-2010 15:30:02 20.9 C 3.64 g/m*3 20.9 C 0 km/h
559 20-04-2010 15:42:01 20.8 C 3.62 g/m*3 20.8 C 0 km/h
560 20-04-2010 15:54:03 21.3 C 3.73 g/m*3 21.3 C 0 km/h
561 20-04-2010 16:06:02 21.4 C 3.75 g/m*3 21.4 C 0 km/h
562 20-04-2010 16:18:02 21.6 C 3.79 g/m*3 21.6 C 0 km/h
563 20-04-2010 16:30:02 21.5 C 3.77 g/m*3 21.5 C 0 km/h
564 20-04-2010 16:42:02 21.1 C 3.69 g/m*3 21.1 C 0 km/h
565 20-04-2010 16:54:02 20.6 C 3.58 g/m*3 20.6 C 0 km/h
566 20-04-2010 17:06:02 19.9 C 3.44 g/m*3 19.9 C 0 km/h
567 20-04-2010 17:18:02 19.7 C 3.4 g/m*3 19.7 C 0 km/h
568 20-04-2010 17:30:02 18.9 C 3.73 g/m*3 18.9 C 0 km/h
569 20-04-2010 17:42:02 18.8 C 4.03 g/m*3 18.8 C 0 km/h
570 20-04-2010 17:54:02 18 C 3.99 g/m*3 18 C 0 km/h
571 20-04-2010 18:06:02 17.5 C 4.03 g/m*3 17.5 C 0 km/h
572 20-04-2010 18:18:02 18 C 4.15 g/m*3 18 C 0 km/h
573 20-04-2010 18:30:02 17.9 C 4.12 g/m*3 17.9 C 0 km/h
574 20-04-2010 18:42:02 16.7 C 3.84 g/m*3 16.7 C 0 km/h
575 20-04-2010 18:54:02 16.9 C 4.03 g/m*3 16.9 C 0 km/h
Sensor: Nr:Datum:Temp:Abs-Feuchte:Windchill:Wind:
Aussen-T/F 576 20-04-2010 19:06:01 16.5 C 4.07 g/m*3 16.5 C 0 km/h
577 20-04-2010 19:18:02 15.9 C 4.06 g/m*3 15.9 C 0 km/h
578 20-04-2010 19:30:03 15.5 C 3.97 g/m*3 15.5 C 0 km/h
579 20-04-2010 19:42:01 14.9 C 4.08 g/m*3 14.9 C 0 km/h
580 20-04-2010 19:54:02 14.5 C 3.86 g/m*3 14.5 C 0 km/h
581 20-04-2010 20:06:01 13.9 C 3.6 g/m*3 13.9 C 0 km/h
582 20-04-2010 20:18:01 13.3 C 3.35 g/m*3 13.3 C 0 km/h
583 20-04-2010 20:30:01 12.8 C 3.14 g/m*3 12.8 C 0 km/h
584 20-04-2010 20:42:01 12.3 C 2.93 g/m*3 12.3 C 0 km/h
585 20-04-2010 20:54:02 12.1 C 3 g/m*3 12.1 C 0 km/h
586 20-04-2010 21:06:02 11.6 C 2.91 g/m*3 11.6 C 0 km/h
587 20-04-2010 21:18:02 11.4 C 2.77 g/m*3 11.4 C 0 km/h
588 20-04-2010 21:30:02 11.1 C 2.62 g/m*3 11.1 C 0 km/h
589 20-04-2010 21:42:02 10.8 C 2.77 g/m*3 10.8 C 0 km/h
590 20-04-2010 21:54:02 10.6 C 2.73 g/m*3 10.6 C 0 km/h
591 20-04-2010 22:06:02 10.3 C 2.87 g/m*3 10.3 C 0 km/h
592 20-04-2010 22:19:02 10 C 2.91 g/m*3 10 C 0 km/h
593 20-04-2010 22:31:02 9.9 C 3.08 g/m*3 9.9 C 0 km/h
594 20-04-2010 22:43:02 9.7 C 3.23 g/m*3 9.7 C 0 km/h
595 20-04-2010 22:55:02 9.4 C 3.17 g/m*3 9.4 C 0 km/h
596 20-04-2010 23:07:02 9.2 C 3.13 g/m*3 9.2 C 0 km/h
597 20-04-2010 23:19:02 9 C 3.09 g/m*3 9 C 0 km/h
598 20-04-2010 23:31:02 8.9 C 3.15 g/m*3 8.9 C 0 km/h
599 20-04-2010 23:43:02 8.6 C 3.27 g/m*3 8.6 C 0 km/h
600 20-04-2010 23:55:03 8.4 C 3.31 g/m*3 8.4 C 0 km/h
Sensor: Nr:Datum:Temp:Abs-Feuchte:Windchill:Wind:
Aussen-T/F 601 21-04-2010 00:07:03 8.2 C 3.35 g/m*3 8.2 C 0 km/h
602 21-04-2010 00:19:03 8 C 3.39 g/m*3 8 C 0 km/h
603 21-04-2010 00:31:03 7.8 C 3.51 g/m*3 7.8 C 0 km/h
604 21-04-2010 00:43:03 7.8 C 3.59 g/m*3 7.8 C 0 km/h
605 21-04-2010 00:55:03 7.5 C 3.6 g/m*3 7.5 C 0 km/h
606 21-04-2010 01:07:03 7.2 C 3.61 g/m*3 7.2 C 0 km/h
607 21-04-2010 01:19:03 7 C 3.56 g/m*3 7 C 0 km/h
608 21-04-2010 01:31:03 7 C 3.64 g/m*3 7 C 0 km/h
609 21-04-2010 01:43:03 6.7 C 3.65 g/m*3 6.7 C 0 km/h
610 21-04-2010 01:55:03 6.5 C 3.75 g/m*3 6.5 C 0 km/h
611 21-04-2010 02:07:03 6.3 C 3.7 g/m*3 6.3 C 0 km/h
612 21-04-2010 02:19:03 6.1 C 3.73 g/m*3 6.1 C 0 km/h
613 21-04-2010 02:31:03 5.9 C 3.82 g/m*3 5.9 C 0 km/h
614 21-04-2010 02:43:03 5.6 C 3.89 g/m*3 5.6 C 0 km/h
615 21-04-2010 02:55:03 5.2 C 3.86 g/m*3 5.2 C 0 km/h
616 21-04-2010 03:07:03 4.9 C 4.05 g/m*3 4.9 C 0 km/h
617 21-04-2010 03:19:03 4.7 C 4 g/m*3 4.7 C 0 km/h
618 21-04-2010 03:31:03 4.7 C 4 g/m*3 4.7 C 0 km/h
619 21-04-2010 03:43:03 4.6 C 3.97 g/m*3 4.6 C 0 km/h
620 21-04-2010 03:55:03 4.4 C 3.98 g/m*3 4.4 C 0 km/h
621 21-04-2010 04:07:04 4.3 C 4.02 g/m*3 4.3 C 0 km/h
622 21-04-2010 04:19:04 4 C 3.94 g/m*3 4 C 0 km/h
623 21-04-2010 04:31:04 3.9 C 4.04 g/m*3 3.9 C 0 km/h
624 21-04-2010 04:43:04 3.7 C 4.05 g/m*3 3.7 C 0 km/h
625 21-04-2010 04:55:04 3.5 C 4.06 g/m*3 3.5 C 0 km/h
Sensor: Nr:Datum:Temp:Abs-Feuchte:Windchill:Wind:
Aussen-T/F 626 21-04-2010 05:07:04 3.2 C 4.04 g/m*3 3.2 C 0 km/h
627 21-04-2010 05:19:04 3 C 4.04 g/m*3 3 C 0 km/h
628 21-04-2010 05:31:04 2.8 C 4.11 g/m*3 2.8 C 0 km/h
629 21-04-2010 05:43:04 2.6 C 4.05 g/m*3 2.6 C 0 km/h
630 21-04-2010 05:55:04 2.6 C 4.05 g/m*3 2.6 C 0 km/h
631 21-04-2010 06:07:04 2.5 C 4.08 g/m*3 2.5 C 0 km/h
632 21-04-2010 06:19:04 2.4 C 4.05 g/m*3 2.4 C 0 km/h
633 21-04-2010 06:31:04 2.4 C 4.05 g/m*3 2.4 C 0 km/h
634 21-04-2010 06:43:04 2.3 C 4.08 g/m*3 2.3 C 0 km/h
635 21-04-2010 06:55:04 2.4 C 4.11 g/m*3 2.4 C 0 km/h
636 21-04-2010 07:07:03 2.5 C 4.08 g/m*3 2.5 C 0 km/h
637 21-04-2010 07:19:02 2.7 C 4.08 g/m*3 2.7 C 0 km/h
638 21-04-2010 07:31:03 2.8 C 4.11 g/m*3 2.8 C 0 km/h
639 21-04-2010 07:43:03 3.1 C 4.07 g/m*3 3.1 C 0 km/h
640 21-04-2010 07:55:02 3.6 C 4.15 g/m*3 3.6 C 0 km/h
641 21-04-2010 08:07:02 4 C 4.01 g/m*3 4 C 0 km/h
642 21-04-2010 08:19:02 4.1 C 3.97 g/m*3 4.1 C 0 km/h
643 21-04-2010 08:31:02 4.2 C 4.06 g/m*3 4.2 C 0 km/h
644 21-04-2010 08:43:02 4.4 C 4.11 g/m*3 4.4 C 0 km/h
645 21-04-2010 08:55:02 4.6 C 4.17 g/m*3 4.6 C 0 km/h
646 21-04-2010 09:07:03 4.7 C 4.2 g/m*3 4.7 C 0 km/h
647 21-04-2010 09:19:02 5 C 4.14 g/m*3 5 C 0 km/h
648 21-04-2010 09:31:03 5.3 C 4.09 g/m*3 5.3 C 0 km/h
649 21-04-2010 09:43:03 5.7 C 4.2 g/m*3 5.7 C 0 km/h
650 21-04-2010 09:55:02 6 C 4.06 g/m*3 6 C 0 km/h
Sensor: Nr:Datum:Temp:Abs-Feuchte:Windchill:Wind:
Aussen-T/F 651 21-04-2010 10:07:02 6.5 C 4.05 g/m*3 6.5 C 0 km/h
652 21-04-2010 10:19:01 6.8 C 4.13 g/m*3 6.8 C 0 km/h
653 21-04-2010 10:31:02 7.5 C 4.16 g/m*3 7.5 C 0 km/h
654 21-04-2010 10:43:03 7.6 C 4.03 g/m*3 7.6 C 0 km/h
655 21-04-2010 10:55:02 6.7 C 4.41 g/m*3 6.7 C 0 km/h
656 21-04-2010 11:07:02 6.5 C 4.8 g/m*3 6.5 C 0 km/h
657 21-04-2010 11:19:02 6.9 C 5.08 g/m*3 6.9 C 0 km/h
658 21-04-2010 11:31:02 7.1 C 4.91 g/m*3 7.1 C 0 km/h
659 21-04-2010 11:43:03 7.1 C 4.84 g/m*3 7.1 C 0 km/h
660 21-04-2010 11:55:01 6.7 C 4.79 g/m*3 6.7 C 0 km/h
661 21-04-2010 12:07:02 6.2 C 4.85 g/m*3 6.2 C 0 km/h
662 21-04-2010 12:19:01 5.7 C 5.19 g/m*3 5.7 C 0 km/h
663 21-04-2010 12:31:01 6.7 C 5.62 g/m*3 6.7 C 0 km/h
664 21-04-2010 12:43:01 7.8 C 5.55 g/m*3 7.8 C 0 km/h
665 21-04-2010 12:55:01 8.5 C 5.55 g/m*3 8.5 C 0 km/h
666 21-04-2010 13:07:02 9.5 C 5.28 g/m*3 9.5 C 0 km/h
667 21-04-2010 13:19:01 9.1 C 4.44 g/m*3 9.1 C 0 km/h
668 21-04-2010 13:31:02 9.6 C 4.49 g/m*3 9.6 C 0 km/h
669 21-04-2010 13:43:02 9.7 C 4.15 g/m*3 9.7 C 0 km/h
670 21-04-2010 13:55:02 9.8 C 4.27 g/m*3 9.8 C 0 km/h
671 21-04-2010 14:07:02 10.4 C 4.24 g/m*3 10.4 C 0 km/h
672 21-04-2010 14:19:01 10.6 C 3.9 g/m*3 10.6 C 0 km/h
673 21-04-2010 14:31:02 10.9 C 3.68 g/m*3 10.9 C 0 km/h
674 21-04-2010 14:43:02 10.5 C 3.59 g/m*3 10.5 C 0 km/h
675 21-04-2010 14:55:02 10.8 C 3.56 g/m*3 10.8 C 0 km/h
Sensor: Nr:Datum:Temp:Abs-Feuchte:Windchill:Wind:
Aussen-T/F 676 21-04-2010 15:07:02 11.7 C 3.66 g/m*3 11.7 C 0 km/h
677 21-04-2010 15:19:02 12 C 3.09 g/m*3 12 C 0 km/h
678 21-04-2010 15:31:02 11.7 C 3.14 g/m*3 11.7 C 0 km/h
679 21-04-2010 15:43:02 12 C 2.98 g/m*3 12 C 0 km/h
680 21-04-2010 15:55:02 12.1 C 3 g/m*3 12.1 C 0 km/h
681 21-04-2010 16:07:02 12.6 C 2.88 g/m*3 12.6 C 0 km/h
682 21-04-2010 16:19:02 13.4 C 2.91 g/m*3 13.4 C 0 km/h
683 21-04-2010 16:31:02 13.2 C 2.99 g/m*3 13.2 C 0 km/h
684 21-04-2010 16:43:02 12.1 C 3 g/m*3 12.1 C 0 km/h
685 21-04-2010 16:55:01 12.2 C 3.24 g/m*3 12.2 C 0 km/h
686 21-04-2010 17:07:02 12.4 C 2.95 g/m*3 12.4 C 0 km/h
687 21-04-2010 17:19:01 12.2 C 2.81 g/m*3 12.2 C 0 km/h
688 21-04-2010 17:31:02 12.1 C 2.79 g/m*3 12.1 C 0 km/h
689 21-04-2010 17:43:02 12.8 C 2.8 g/m*3 12.8 C 0 km/h
690 21-04-2010 17:55:02 12 C 2.56 g/m*3 12 C 0 km/h
691 21-04-2010 18:07:02 12.2 C 2.7 g/m*3 12.2 C 0 km/h
692 21-04-2010 18:19:01 12.5 C 2.75 g/m*3 12.5 C 0 km/h
693 21-04-2010 18:31:02 12.4 C 2.73 g/m*3 12.4 C 0 km/h
694 21-04-2010 18:43:02 12.3 C 2.17 g/m*3 12.3 C 0 km/h
695 21-04-2010 18:55:02 12.4 C 2.29 g/m*3 12.4 C 0 km/h
696 21-04-2010 19:07:02 11.6 C 2.18 g/m*3 11.6 C 0 km/h
697 21-04-2010 19:19:01 11.2 C 2.53 g/m*3 11.2 C 0 km/h
698 21-04-2010 19:31:02 11.3 C 2.24 g/m*3 11.3 C 0 km/h
699 21-04-2010 19:43:02 11.4 C 2.36 g/m*3 11.4 C 0 km/h
700 21-04-2010 19:55:02 10.8 C 2.47 g/m*3 10.8 C 0 km/h
Sensor: Nr:Datum:Temp:Abs-Feuchte:Windchill:Wind:
Aussen-T/F 701 21-04-2010 20:07:02 10.1 C 2.46 g/m*3 10.1 C 0 km/h
702 21-04-2010 20:19:02 9.6 C 2.66 g/m*3 9.6 C 0 km/h
703 21-04-2010 20:31:02 9.2 C 2.68 g/m*3 9.2 C 0 km/h
704 21-04-2010 20:43:02 8.8 C 2.79 g/m*3 8.8 C 0 km/h
705 21-04-2010 20:55:02 8.4 C 2.88 g/m*3 8.4 C 0 km/h
706 21-04-2010 21:07:02 8.1 C 2.91 g/m*3 8.1 C 0 km/h
707 21-04-2010 21:19:02 7.6 C 2.98 g/m*3 7.6 C 0 km/h
708 21-04-2010 21:31:02 7.2 C 2.98 g/m*3 7.2 C 0 km/h
709 21-04-2010 21:43:02 6.9 C 3.08 g/m*3 6.9 C 0 km/h
710 21-04-2010 21:55:01 6.6 C 3.1 g/m*3 6.6 C 0 km/h
711 21-04-2010 22:08:02 6.5 C 3.07 g/m*3 6.5 C 0 km/h
712 21-04-2010 22:20:02 6.5 C 3.07 g/m*3 6.5 C 0 km/h
713 21-04-2010 22:32:02 6.3 C 3.03 g/m*3 6.3 C 0 km/h
714 21-04-2010 22:44:02 6.2 C 3.16 g/m*3 6.2 C 0 km/h
715 21-04-2010 22:56:02 5.9 C 3.24 g/m*3 5.9 C 0 km/h
716 21-04-2010 23:08:02 5.6 C 3.32 g/m*3 5.6 C 0 km/h
717 21-04-2010 23:20:02 5.3 C 3.33 g/m*3 5.3 C 0 km/h
718 21-04-2010 23:32:02 5 C 3.4 g/m*3 5 C 0 km/h
719 21-04-2010 23:44:02 4.8 C 3.49 g/m*3 4.8 C 0 km/h
720 21-04-2010 23:56:02 4.5 C 3.42 g/m*3 4.5 C 0 km/h
721 22-04-2010 00:08:02 4.3 C 3.5 g/m*3 4.3 C 0 km/h
722 22-04-2010 00:20:03 4.1 C 3.46 g/m*3 4.1 C 0 km/h
723 22-04-2010 00:32:03 3.8 C 3.51 g/m*3 3.8 C 0 km/h
724 22-04-2010 00:44:03 3.6 C 3.47 g/m*3 3.6 C 0 km/h
725 22-04-2010 00:56:03 3.5 C 3.57 g/m*3 3.5 C 0 km/h
Sensor: Nr:Datum:Temp:Abs-Feuchte:Windchill:Wind:
Aussen-T/F 726 22-04-2010 01:08:03 3.4 C 3.6 g/m*3 3.4 C 0 km/h
727 22-04-2010 01:20:03 3.1 C 3.59 g/m*3 3.1 C 0 km/h
728 22-04-2010 01:32:03 2.9 C 3.66 g/m*3 2.9 C 0 km/h
729 22-04-2010 01:44:03 2.7 C 3.67 g/m*3 2.7 C 0 km/h
730 22-04-2010 01:56:03 2.5 C 3.68 g/m*3 2.5 C 0 km/h
731 22-04-2010 02:08:03 2.3 C 3.69 g/m*3 2.3 C 0 km/h
732 22-04-2010 02:20:03 2.2 C 3.72 g/m*3 2.2 C 0 km/h
733 22-04-2010 02:32:03 2 C 3.78 g/m*3 2 C 0 km/h
734 22-04-2010 02:44:03 2 C 3.78 g/m*3 2 C 0 km/h
735 22-04-2010 02:56:03 1.7 C 3.76 g/m*3 1.7 C 0 km/h
736 22-04-2010 03:08:03 1.5 C 3.71 g/m*3 1.5 C 0 km/h
737 22-04-2010 03:20:03 1.3 C 3.71 g/m*3 1.3 C 0 km/h
738 22-04-2010 03:32:03 1.3 C 3.76 g/m*3 1.3 C 0 km/h
739 22-04-2010 03:44:03 1.2 C 3.74 g/m*3 1.2 C 0 km/h
740 22-04-2010 03:56:03 1.1 C 3.76 g/m*3 1.1 C 0 km/h
741 22-04-2010 04:08:03 1 C 3.79 g/m*3 1 C 0 km/h
742 22-04-2010 04:20:03 0.9 C 3.81 g/m*3 0.9 C 0 km/h
743 22-04-2010 04:32:03 0.8 C 3.79 g/m*3 0.8 C 0 km/h
744 22-04-2010 04:44:04 0.7 C 3.81 g/m*3 0.7 C 0 km/h
745 22-04-2010 04:56:04 0.6 C 3.84 g/m*3 0.6 C 0 km/h
746 22-04-2010 05:08:04 0.5 C 3.76 g/m*3 0.5 C 0 km/h
747 22-04-2010 05:20:04 0.5 C 3.81 g/m*3 0.5 C 0 km/h
748 22-04-2010 05:32:04 0.3 C 3.76 g/m*3 0.3 C 0 km/h
749 22-04-2010 05:44:04 0.2 C 3.78 g/m*3 0.2 C 0 km/h
750 22-04-2010 05:56:04 0 C 3.73 g/m*3 0 C 0 km/h
Sensor: Nr:Datum:Temp:Abs-Feuchte:Windchill:Wind:
Aussen-T/F 751 22-04-2010 06:08:04 -0.2 C 3.68 g/m*3 -0.2 C 0 km/h
752 22-04-2010 06:20:04 -0.2 C 3.73 g/m*3 -0.2 C 0 km/h
753 22-04-2010 06:32:04 -0.2 C 3.73 g/m*3 -0.2 C 0 km/h
754 22-04-2010 06:44:04 -0.1 C 3.8 g/m*3 -0.1 C 0 km/h
755 22-04-2010 06:56:04 -0.1 C 3.85 g/m*3 -0.1 C 0 km/h
756 22-04-2010 07:08:03 -0.2 C 3.82 g/m*3 -0.2 C 0 km/h
757 22-04-2010 07:20:02 -0.2 C 3.87 g/m*3 -0.2 C 0 km/h
758 22-04-2010 07:32:02 0 C 3.92 g/m*3 0 C 0 km/h
759 22-04-2010 07:44:02 0.1 C 3.95 g/m*3 0.1 C 0 km/h
760 22-04-2010 07:56:02 0.3 C 4.01 g/m*3 0.3 C 0 km/h
761 22-04-2010 08:08:02 0.3 C 3.96 g/m*3 0.3 C 0 km/h
762 22-04-2010 08:20:02 0.5 C 4.01 g/m*3 0.5 C 0 km/h
763 22-04-2010 08:32:02 0.6 C 3.99 g/m*3 0.6 C 0 km/h
764 22-04-2010 08:44:02 0.9 C 4.02 g/m*3 0.9 C 0 km/h
765 22-04-2010 08:56:02 1.3 C 4.08 g/m*3 1.3 C 0 km/h
766 22-04-2010 09:08:02 1.7 C 4.08 g/m*3 1.7 C 0 km/h
767 22-04-2010 09:20:02 2.2 C 4 g/m*3 2.2 C 0 km/h
768 22-04-2010 09:32:03 2.8 C 4.05 g/m*3 2.8 C 0 km/h
769 22-04-2010 09:44:03 3.5 C 4.12 g/m*3 3.5 C 0 km/h
770 22-04-2010 09:56:02 4.5 C 4.21 g/m*3 4.5 C 0 km/h
771 22-04-2010 10:08:01 5.2 C 3.99 g/m*3 5.2 C 0 km/h
772 22-04-2010 10:20:02 5.7 C 3.99 g/m*3 5.7 C 0 km/h
773 22-04-2010 10:32:02 6.4 C 3.73 g/m*3 6.4 C 0 km/h
774 22-04-2010 10:44:02 6.8 C 3.44 g/m*3 6.8 C 0 km/h
775 22-04-2010 10:56:02 7.3 C 3.24 g/m*3 7.3 C 0 km/h
Sensor: Nr:Datum:Temp:Abs-Feuchte:Windchill:Wind:
Aussen-T/F 776 22-04-2010 11:08:02 8.3 C 3.2 g/m*3 8.3 C 0 km/h
777 22-04-2010 11:20:02 8.7 C 3.03 g/m*3 8.7 C 0 km/h
778 22-04-2010 11:32:03 9 C 2.91 g/m*3 9 C 0 km/h
779 22-04-2010 11:44:03 9.7 C 3.04 g/m*3 9.7 C 0 km/h
780 22-04-2010 11:56:02 9.9 C 2.89 g/m*3 9.9 C 0 km/h
781 22-04-2010 12:08:01 10 C 2.82 g/m*3 10 C 0 km/h
782 22-04-2010 12:20:02 10.4 C 2.89 g/m*3 10.4 C 0 km/h
783 22-04-2010 12:32:02 10.9 C 2.88 g/m*3 10.9 C 0 km/h
784 22-04-2010 12:44:02 11.1 C 2.92 g/m*3 11.1 C 0 km/h
785 22-04-2010 12:56:02 11.4 C 2.77 g/m*3 11.4 C 0 km/h
786 22-04-2010 13:08:01 12 C 2.66 g/m*3 12 C 0 km/h
787 22-04-2010 13:20:01 12 C 2.13 g/m*3 12 C 0 km/h
788 22-04-2010 13:32:02 13 C 2.27 g/m*3 13 C 0 km/h
789 22-04-2010 13:44:02 13.5 C 2.34 g/m*3 13.5 C 0 km/h
790 22-04-2010 13:56:02 13.3 C 2.31 g/m*3 13.3 C 0 km/h
791 22-04-2010 14:08:02 13.8 C 2.38 g/m*3 13.8 C 0 km/h
792 22-04-2010 14:20:02 14.9 C 2.55 g/m*3 14.9 C 0 km/h
793 22-04-2010 14:32:02 15.5 C 2.64 g/m*3 15.5 C 0 km/h
794 22-04-2010 14:44:02 16 C 2.72 g/m*3 16 C 0 km/h
795 22-04-2010 14:56:02 16.3 C 2.77 g/m*3 16.3 C 0 km/h
796 22-04-2010 15:08:01 16.1 C 2.74 g/m*3 16.1 C 0 km/h
797 22-04-2010 15:20:02 16 C 2.72 g/m*3 16 C 0 km/h
798 22-04-2010 15:32:02 16 C 2.72 g/m*3 16 C 0 km/h
799 22-04-2010 15:44:02 17.5 C 2.98 g/m*3 17.5 C 0 km/h
800 22-04-2010 15:56:02 16.3 C 2.77 g/m*3 16.3 C 0 km/h
Sensor: Nr:Datum:Temp:Abs-Feuchte:Windchill:Wind:
Aussen-T/F 801 22-04-2010 16:08:02 16.3 C 2.77 g/m*3 16.3 C 0 km/h
802 22-04-2010 16:20:02 17.9 C 3.05 g/m*3 17.9 C 0 km/h
803 22-04-2010 16:32:03 18.9 C 3.24 g/m*3 18.9 C 0 km/h
804 22-04-2010 16:44:03 17.5 C 2.98 g/m*3 17.5 C 0 km/h
805 22-04-2010 16:56:02 18.8 C 3.22 g/m*3 18.8 C 0 km/h
806 22-04-2010 17:08:01 19.4 C 3.34 g/m*3 19.4 C 0 km/h
807 22-04-2010 17:20:02 19.4 C 3.34 g/m*3 19.4 C 0 km/h
808 22-04-2010 17:32:02 19.8 C 3.42 g/m*3 19.8 C 0 km/h
809 22-04-2010 17:44:02 21.6 C 3.79 g/m*3 21.6 C 0 km/h
810 22-04-2010 17:56:02 21.2 C 3.71 g/m*3 21.2 C 0 km/h
811 22-04-2010 18:08:03 19.3 C 3.32 g/m*3 19.3 C 0 km/h
812 22-04-2010 18:20:02 18.5 C 3.16 g/m*3 18.5 C 0 km/h
813 22-04-2010 18:32:02 18.9 C 3.24 g/m*3 18.9 C 0 km/h
814 22-04-2010 18:44:02 18.7 C 3.2 g/m*3 18.7 C 0 km/h
815 22-04-2010 18:56:02 17.8 C 3.04 g/m*3 17.8 C 0 km/h
816 22-04-2010 19:08:02 17.2 C 2.93 g/m*3 17.2 C 0 km/h
817 22-04-2010 19:20:01 17 C 2.89 g/m*3 17 C 0 km/h
818 22-04-2010 19:32:02 16.9 C 2.88 g/m*3 16.9 C 0 km/h
819 22-04-2010 19:44:02 16.5 C 2.81 g/m*3 16.5 C 0 km/h
820 22-04-2010 19:56:02 16.3 C 2.77 g/m*3 16.3 C 0 km/h
821 22-04-2010 20:08:02 15.1 C 2.58 g/m*3 15.1 C 0 km/h
822 22-04-2010 20:20:02 13.9 C 2.4 g/m*3 13.9 C 0 km/h
823 22-04-2010 20:32:02 13.5 C 2.34 g/m*3 13.5 C 0 km/h
824 22-04-2010 20:44:03 12.6 C 2.21 g/m*3 12.6 C 0 km/h
825 22-04-2010 20:56:02 12 C 2.13 g/m*3 12 C 0 km/h
Sensor: Nr:Datum:Temp:Abs-Feuchte:Windchill:Wind:
Aussen-T/F 826 22-04-2010 21:08:03 11.7 C 2.41 g/m*3 11.7 C 0 km/h
827 22-04-2010 21:20:02 11.2 C 2.64 g/m*3 11.2 C 0 km/h
828 22-04-2010 21:32:02 10.7 C 2.65 g/m*3 10.7 C 0 km/h
829 22-04-2010 21:44:02 10.3 C 2.68 g/m*3 10.3 C 0 km/h
830 22-04-2010 21:57:02 10 C 2.82 g/m*3 10 C 0 km/h
831 22-04-2010 22:09:02 9.9 C 2.8 g/m*3 9.9 C 0 km/h
832 22-04-2010 22:21:02 9.5 C 2.73 g/m*3 9.5 C 0 km/h
833 22-04-2010 22:33:02 9.2 C 2.77 g/m*3 9.2 C 0 km/h
834 22-04-2010 22:45:02 9.1 C 2.75 g/m*3 9.1 C 0 km/h
835 22-04-2010 22:57:02 8.7 C 2.94 g/m*3 8.7 C 0 km/h
836 22-04-2010 23:09:02 8.5 C 2.99 g/m*3 8.5 C 0 km/h
837 22-04-2010 23:21:02 8.3 C 3.12 g/m*3 8.3 C 0 km/h
838 22-04-2010 23:33:02 8.2 C 3.18 g/m*3 8.2 C 0 km/h
839 22-04-2010 23:45:02 7.9 C 3.29 g/m*3 7.9 C 0 km/h
840 22-04-2010 23:57:02 7.7 C 3.32 g/m*3 7.7 C 0 km/h

Legende:
   Min
   Max


Maximal/Minimal-Werte vom 16.04.2010 - 22.04.2010

Sensor Min Max Avg
Temp
(Aussen-T/F)
-0.2 °C
22-04-2010  06:08:04
26.9 °C
18-04-2010  17:16:02
10.31 °C
Abs-Feuchte
(Aussen-T/F)
2.13 g/m*3
22-04-2010  13:20:01
6.31 g/m*3
20-04-2010  09:54:03
4.06 g/m*3
Windchill
(Aussen-T/F)
-0.2 C
22-04-2010  06:08:04
26.9 C
18-04-2010  17:16:02
10.29 C

Die Daten stammen von einer Davis Vantage Pro 2 Wetter-Station und werden unter Linux mit der Software wview2wettercgi und aufbereitet. Alle Angaben erfolgen ohne Gewähr für ihre Vollständigkeit oder Richtigkeit.
Kontakt: Rainer Krienke krienke@uni-koblenz.de . Meine Webseiten an der Uni Koblenz oder privat.
Version: $Revision: 0.78 $